Austin, TX (78702)

8:43 PM CDT on August 22, 2014 (GMT -0500)
Huston-Tillotson Environmental Studies | Change Station
CLOSE
Current Station
Personal Weather Station
Location: Austin, TX
Elevation: 545 ft
Nearby Weather Stations

Elev 545 ft 30.26 °N, 97.72 °W | Updated 9 minutes ago

Partly Cloudy
Partly Cloudy
94.2 °F
Feels Like 96 °F
N
8.0
Wind Variable Wind from South
Gusts 10.0 mph

Today
High -- | Low -- °F
--% Chance of Precip.
Yesterday
High -- | Low -- °F
Precip. -- in
7:02 AM 8:04 PM
Waning Crescent, 6% visible
Pressure 29.91 in
Visibility 10.0 miles
Clouds Few 8500 ft
Heat Index 96 °F
Dew Point 64 °F
Humidity 37%
Rainfall 0.00 in
Snow Depth Not available.
UV 0.0 out of 12
Pollen 6.60 out of 12
Ozone Good
PM2.5 Moderate
Flu Activity Not available.
METAR KATT 230051Z AUTO 14007KT 110V200 10SM FEW085 35/17 A2996 RMK AO2 SLP128 T03500167

More Conditions Fewer Conditions

Pressure 29.91 in
Visibility 10.0 miles
Clouds Few 8500 ft
Heat Index 96 °F
Dew Point 64 °F
Humidity 37%
Rainfall 0.00 in
Snow Depth Not available.
UV 0.0 out of 12
Pollen 6.60 out of 12
Ozone Good
PM2.5 Moderate
Flu Activity Not available.
METAR KATT 230051Z AUTO 14007KT 110V200 10SM FEW085 35/17 A2996 RMK AO2 SLP128 T03500167

More Conditions Fewer Conditions

10-Day Weather Forecast

Almanac

Astronomy

Aug. 22, 2014 Rise Set
Actual Time 7:02 AM CDT 8:04 PM CDT
Civil Twilight 6:37 AM CDT 8:29 PM CDT
Nautical Twilight 6:07 AM CDT 8:59 PM CDT
Astronomical Twilight 5:37 AM CDT 9:29 PM CDT
Moon 4:31 AM CDT (8/22) 6:10 PM CDT (8/22)
Length of Visible Light 13h 52m
Length of Day
13h 02m
Tomorrow will be 1m 40s shorter.
Waning Crescent, 6% of the Moon is Illuminated
Today
Waning Crescent
Aug 25
New
Sep 2
First Quarter
Sep 8
Full
Sep 15
Last Quarter

Today's Extremes

State Highs State Lows

Community

WunderPhotos

Upload Photos

1,746,337 photos uploaded!

WunderBlogs® & News

Nearby

Air Quality

  Air Quality AQ Index Pollutant
Yesterday Moderate
PM2.5
Yesterday Good
OZONE
Current Moderate
PM2.5
Current Good
OZONE
Friday Good
PM10
Friday Good
OZONE
Saturday Good
PM10
Saturday Good
OZONE
Sunday Good
PM10
Sunday Good
OZONE
Monday Good
OZONE
Monday Good
PM10
Tuesday Good
OZONE
Tuesday Good
PM10

Snow Depth

Station Depth Elevation
No new snow has been reported.

Earthquake Activity

City Distance Mag. Time & Date
No recent earthquake activity has been reported nearby.
Minimum magnitude displayed is 2.5.

Coastal Water Temperatures

Place Temperature
No Stations Reporting

Nearby Weather Stations